createdAt,value
2022-08-09T00:04:10.533Z,19.47
2022-08-09T00:08:32.236Z,19.50
2022-08-09T00:13:22.698Z,19.47
2022-08-09T00:18:22.473Z,19.44
2022-08-09T00:23:54.768Z,19.48
2022-08-09T00:28:27.217Z,19.50
2022-08-09T00:33:32.697Z,19.56
2022-08-09T00:38:26.191Z,19.50
2022-08-09T00:44:11.499Z,19.46
2022-08-09T00:48:27.239Z,19.51
2022-08-09T00:53:26.976Z,19.55
2022-08-09T00:58:27.902Z,19.54
2022-08-09T01:03:28.464Z,19.48
2022-08-09T01:08:28.810Z,19.40
2022-08-09T01:13:30.941Z,19.39
2022-08-09T01:18:31.446Z,19.44
2022-08-09T01:24:01.902Z,19.54
2022-08-09T01:28:33.003Z,19.43
2022-08-09T01:33:33.003Z,19.44
2022-08-09T01:38:33.675Z,19.39
2022-08-09T01:43:50.354Z,19.37
2022-08-09T01:48:35.979Z,19.41
2022-08-09T01:53:41.159Z,19.40
2022-08-09T01:58:37.360Z,19.37
2022-08-09T02:03:37.130Z,19.41
2022-08-09T02:08:56.878Z,19.43
2022-08-09T02:13:40.625Z,19.44
2022-08-09T02:18:43.030Z,19.37
2022-08-09T02:23:43.136Z,19.29
2022-08-09T02:28:40.126Z,19.22
2022-08-09T02:34:07.372Z,19.22
2022-08-09T02:38:47.503Z,19.23
2022-08-09T02:43:54.762Z,19.19
2022-08-09T02:48:46.105Z,19.18
2022-08-09T02:53:59.566Z,19.19
2022-08-09T02:58:45.590Z,19.18
2022-08-09T03:04:18.051Z,19.23
2022-08-09T03:08:46.389Z,19.13
2022-08-09T03:13:59.381Z,19.10
2022-08-09T03:18:47.869Z,19.13
2022-08-09T03:24:04.745Z,19.11
2022-08-09T03:28:49.025Z,19.11
2022-08-09T03:33:54.085Z,19.02
2022-08-09T03:38:50.322Z,19.08
2022-08-09T03:44:02.964Z,18.99
2022-08-09T03:48:52.104Z,19.04
2022-08-09T03:53:51.316Z,18.98
2022-08-09T03:58:52.070Z,18.98
2022-08-09T04:04:01.301Z,18.90
2022-08-09T04:08:54.390Z,18.94
2022-08-09T04:14:54.219Z,18.88
2022-08-09T04:18:55.427Z,18.85
2022-08-09T04:23:57.786Z,18.88
2022-08-09T04:28:58.290Z,18.95
2022-08-09T04:33:59.322Z,18.94
2022-08-09T04:38:56.672Z,19.04
2022-08-09T04:44:07.349Z,18.99
2022-08-09T04:48:59.010Z,18.95
2022-08-09T04:53:58.890Z,18.98
2022-08-09T04:59:15.569Z,18.90
2022-08-09T05:04:02.970Z,19.06
2022-08-09T05:09:01.544Z,19.16
2022-08-09T05:14:01.839Z,19.07
2022-08-09T05:19:02.823Z,18.98
2022-08-09T05:24:04.035Z,19.07
2022-08-09T05:29:03.993Z,19.07
2022-08-09T05:34:04.692Z,19.23
2022-08-09T05:39:05.409Z,19.21
2022-08-09T05:44:06.225Z,19.25
2022-08-09T05:49:07.445Z,19.28
2022-08-09T05:54:08.293Z,19.41
2022-08-09T05:59:07.785Z,19.40
2022-08-09T06:04:08.428Z,19.54
2022-08-09T06:09:23.250Z,19.92
2022-08-09T06:14:10.714Z,19.95
2022-08-09T06:19:10.380Z,20.10
2022-08-09T06:24:11.081Z,20.62
2022-08-09T06:29:11.971Z,20.52
2022-08-09T06:34:12.793Z,20.77
2022-08-09T06:39:13.468Z,20.73
2022-08-09T06:44:13.946Z,20.94
2022-08-09T06:49:22.621Z,20.94
2022-08-09T06:54:16.529Z,21.07
2022-08-09T07:00:49.453Z,21.52
2022-08-09T07:04:20.193Z,21.82
2022-08-09T07:09:57.253Z,21.80
2022-08-09T07:14:26.483Z,22.07
2022-08-09T07:19:23.652Z,21.90
2022-08-09T07:24:19.005Z,22.24
2022-08-09T07:29:19.719Z,22.25
2022-08-09T07:34:21.301Z,22.20
2022-08-09T07:39:40.038Z,22.14
2022-08-09T07:44:24.192Z,22.12
2022-08-09T07:49:23.392Z,22.10
2022-08-09T07:54:27.870Z,22.14
2022-08-09T07:59:45.821Z,22.17
2022-08-09T08:04:31.515Z,22.24
2022-08-09T08:09:35.503Z,22.43
2022-08-09T08:14:26.637Z,22.57
2022-08-09T08:19:30.944Z,22.64
2022-08-09T08:24:32.164Z,22.88
2022-08-09T08:29:39.589Z,22.95
2022-08-09T08:34:28.983Z,22.77
2022-08-09T08:39:28.675Z,22.98
2022-08-09T08:44:29.674Z,23.13
2022-08-09T08:49:33.429Z,23.23
2022-08-09T08:54:31.667Z,23.46
2022-08-09T08:59:46.947Z,23.60
2022-08-09T09:04:41.239Z,23.66
2022-08-09T09:09:58.043Z,23.84
2022-08-09T09:14:34.227Z,23.85
2022-08-09T09:19:42.054Z,24.03
2022-08-09T09:24:35.252Z,24.12
2022-08-09T09:30:09.331Z,24.15
2022-08-09T09:34:36.420Z,24.18
2022-08-09T09:39:50.362Z,24.21
2022-08-09T09:44:37.694Z,24.42
2022-08-09T09:50:07.551Z,24.78
2022-08-09T09:54:38.967Z,24.40
2022-08-09T09:59:38.621Z,24.53
2022-08-09T10:04:39.485Z,24.83
2022-08-09T10:09:45.840Z,24.95
2022-08-09T10:14:48.087Z,25.17
2022-08-09T10:19:42.345Z,24.96
2022-08-09T10:24:42.053Z,25.21
2022-08-09T10:30:43.892Z,24.99
2022-08-09T10:34:44.479Z,25.23
2022-08-09T10:39:49.397Z,25.57
2022-08-09T10:44:47.278Z,25.76
2022-08-09T10:49:51.903Z,25.91
2022-08-09T10:54:46.460Z,26.10
2022-08-09T10:59:57.309Z,25.80
2022-08-09T11:04:56.197Z,25.39
2022-08-09T11:09:48.898Z,25.14
2022-08-09T11:14:48.077Z,25.77
2022-08-09T11:20:20.432Z,26.29
2022-08-09T11:24:50.374Z,26.45
2022-08-09T11:30:04.244Z,26.44
2022-08-09T11:34:51.781Z,25.97
2022-08-09T11:39:51.558Z,26.06
2022-08-09T11:44:52.055Z,26.06
2022-08-09T11:50:54.186Z,26.67
2022-08-09T11:54:54.246Z,27.07
2022-08-09T11:59:53.924Z,27.19
2022-08-09T12:04:59.060Z,26.88
2022-08-09T12:09:55.572Z,26.57
2022-08-09T12:15:07.696Z,26.07
2022-08-09T12:19:59.514Z,25.83
2022-08-09T12:24:57.533Z,25.73
2022-08-09T12:30:01.758Z,25.83
2022-08-09T12:34:59.915Z,25.99
2022-08-09T12:39:59.830Z,25.80
2022-08-09T12:45:00.795Z,26.23
2022-08-09T12:50:01.507Z,26.76
2022-08-09T12:56:14.417Z,27.02
2022-08-09T13:00:05.341Z,27.03
2022-08-09T13:05:03.596Z,27.10
2022-08-09T13:10:04.353Z,27.21
2022-08-09T13:15:05.041Z,27.28
2022-08-09T13:20:07.089Z,27.14
2022-08-09T13:25:07.560Z,26.55
2022-08-09T13:30:49.287Z,26.66
2022-08-09T13:35:11.705Z,26.70
2022-08-09T13:41:46.980Z,26.77
2022-08-09T13:45:12.397Z,27.19
2022-08-09T13:50:17.899Z,27.57
2022-08-09T13:55:13.659Z,27.82
2022-08-09T14:00:12.021Z,27.70
2022-08-09T14:05:56.667Z,27.37
2022-08-09T14:10:17.274Z,27.21
2022-08-09T14:16:06.983Z,27.78
2022-08-09T14:20:16.090Z,27.57
2022-08-09T14:25:14.348Z,27.28
2022-08-09T14:30:37.006Z,27.34
2022-08-09T14:35:16.640Z,26.99
2022-08-09T14:40:16.394Z,26.99
2022-08-09T14:46:57.369Z,27.09
2022-08-09T14:50:18.727Z,27.18
2022-08-09T14:55:20.296Z,27.00
2022-08-09T15:00:20.137Z,26.92
2022-08-09T15:05:19.654Z,26.82
2022-08-09T15:10:20.351Z,26.67
2022-08-09T15:15:21.071Z,26.60
2022-08-09T15:21:55.133Z,26.55
2022-08-09T15:25:33.569Z,26.30
2022-08-09T15:30:55.572Z,26.35
2022-08-09T15:35:43.948Z,26.51
2022-08-09T15:40:32.329Z,26.60
2022-08-09T15:45:29.410Z,26.69
2022-08-09T15:50:28.897Z,26.69
2022-08-09T15:55:26.283Z,26.62
2022-08-09T16:00:28.770Z,26.48
2022-08-09T16:05:47.328Z,26.25
2022-08-09T16:10:56.234Z,26.06
2022-08-09T16:16:12.000Z,25.97
2022-08-09T16:20:30.865Z,25.87
2022-08-09T16:25:40.319Z,26.05
2022-08-09T16:30:32.336Z,25.98
2022-08-09T16:35:57.582Z,25.95
2022-08-09T16:40:40.795Z,25.92
2022-08-09T16:45:34.116Z,25.87
2022-08-09T16:50:34.568Z,25.73
2022-08-09T16:55:59.859Z,25.76
2022-08-09T17:00:36.096Z,25.61
2022-08-09T17:06:08.640Z,25.60
2022-08-09T17:10:37.328Z,25.69
2022-08-09T17:15:59.142Z,25.58
2022-08-09T17:26:31.377Z,25.51
2022-08-09T17:31:29.888Z,25.39
2022-08-09T17:36:29.590Z,25.35
2022-08-09T17:41:37.651Z,25.46
2022-08-09T17:46:55.390Z,25.80
2022-08-09T17:51:31.645Z,25.82
2022-08-09T17:56:36.092Z,25.43
2022-08-09T18:01:57.863Z,25.06
2022-08-09T18:06:34.158Z,24.69
2022-08-09T18:11:46.894Z,24.47
2022-08-09T18:16:35.073Z,24.32
2022-08-09T18:21:40.863Z,24.18
2022-08-09T18:26:36.143Z,24.02
2022-08-09T18:31:55.202Z,23.91
2022-08-09T18:36:37.302Z,23.76
2022-08-09T18:41:36.979Z,23.65
2022-08-09T18:46:51.018Z,23.54
2022-08-09T18:51:55.563Z,23.43
2022-08-09T18:56:40.725Z,23.23
2022-08-09T19:01:46.033Z,23.07
2022-08-09T19:06:50.506Z,22.97
2022-08-09T19:11:41.326Z,22.83
2022-08-09T19:16:42.430Z,22.76
2022-08-09T19:21:47.788Z,22.62
2022-08-09T19:26:43.333Z,22.51
2022-08-09T19:31:45.615Z,22.40
2022-08-09T19:36:43.765Z,22.33
2022-08-09T19:41:44.226Z,22.24
2022-08-09T19:46:50.948Z,22.18
2022-08-09T19:51:55.047Z,22.09
2022-08-09T19:56:47.174Z,21.99
2022-08-09T20:01:52.517Z,21.86
2022-08-09T20:06:48.591Z,21.74
2022-08-09T20:11:51.610Z,21.61
2022-08-09T20:16:53.312Z,21.54
2022-08-09T20:21:56.521Z,21.44
2022-08-09T20:26:51.286Z,21.34
2022-08-09T20:32:16.818Z,21.27
2022-08-09T20:36:52.696Z,21.19
2022-08-09T20:41:52.202Z,21.10
2022-08-09T20:46:53.070Z,21.04
2022-08-09T20:51:53.658Z,20.98
2022-08-09T20:56:54.555Z,20.92
2022-08-09T21:01:55.226Z,20.79
2022-08-09T21:06:56.224Z,20.76
2022-08-09T21:16:58.222Z,20.58
2022-08-09T21:21:57.853Z,20.54
2022-08-09T21:26:58.701Z,20.48
2022-08-09T21:31:59.465Z,20.36
2022-08-09T21:37:00.078Z,20.26
2022-08-09T21:42:10.470Z,20.11
2022-08-09T21:47:02.510Z,20.10
2022-08-09T21:52:01.948Z,20.03
2022-08-09T21:57:02.817Z,19.98
2022-08-09T22:02:03.642Z,19.92
2022-08-09T22:07:04.871Z,19.86
2022-08-09T22:12:17.976Z,19.81
2022-08-09T22:17:06.891Z,19.77
2022-08-09T22:22:07.287Z,19.68
2022-08-09T22:27:07.332Z,19.77
2022-08-09T22:32:07.747Z,19.69
2022-08-09T22:37:09.386Z,19.65
2022-08-09T22:42:16.078Z,19.50
2022-08-09T22:48:18.807Z,19.40
2022-08-09T22:52:11.118Z,19.37
2022-08-09T22:57:11.027Z,19.22
2022-08-09T23:02:15.163Z,19.23
2022-08-09T23:07:13.995Z,19.21
2022-08-09T23:12:13.554Z,19.19
2022-08-09T23:17:15.366Z,19.06
2022-08-09T23:22:22.174Z,18.98
2022-08-09T23:27:15.896Z,18.88
2022-08-09T23:32:16.620Z,18.84
2022-08-09T23:37:17.658Z,18.82
2022-08-09T23:42:18.220Z,18.75
2022-08-09T23:47:18.894Z,18.55
2022-08-09T23:52:19.746Z,18.54
2022-08-09T23:57:22.001Z,18.62
